Time;durP1;ratioP1;P1;durP2;ratioP2;P2;SDS_P1;SDS_P2;PMS_P1;PMS_P2;Temp;Humidity;BMP_temperature;BMP_pressure;BME280_temperature;BME280_humidity;BME280_pressure;Samples;Min_cycle;Max_cycle;Signal;HPM_P1;HPM_P2
2022/04/20 00:00:05;;;;;;;2.80;2.33;;;6.00;95.40;;;;;;5113582;28;20210;-52
2022/04/20 00:02:33;;;;;;;4.23;2.63;;;6.00;95.60;;;;;;5113298;27;20214;-52
2022/04/20 00:05:03;;;;;;;2.93;2.70;;;5.90;95.50;;;;;;5113890;28;20291;-52
2022/04/20 00:07:33;;;;;;;3.80;2.80;;;5.90;95.80;;;;;;5114418;28;20207;-52
2022/04/20 00:10:01;;;;;;;3.80;2.90;;;5.70;96.10;;;;;;5114221;28;20605;-52
2022/04/20 00:12:29;;;;;;;3.13;2.83;;;5.70;96.20;;;;;;5113832;28;20223;-53
2022/04/20 00:14:57;;;;;;;3.30;2.80;;;5.70;96.40;;;;;;5113684;28;20269;-52
2022/04/20 00:17:25;;;;;;;4.03;2.83;;;5.70;96.50;;;;;;5113646;28;20259;-52
2022/04/20 00:19:53;;;;;;;3.90;2.47;;;5.60;96.30;;;;;;5113848;28;20919;-52
2022/04/20 00:22:23;;;;;;;4.83;2.70;;;5.60;96.40;;;;;;5113109;28;20552;-52
2022/04/20 00:24:51;;;;;;;3.50;2.73;;;5.60;96.60;;;;;;5113844;28;20219;-52
2022/04/20 00:27:19;;;;;;;3.47;2.70;;;5.70;96.50;;;;;;5113695;28;20203;-52
2022/04/20 00:29:47;;;;;;;4.23;2.80;;;5.60;96.80;;;;;;5113852;28;20204;-52
2022/04/20 00:32:16;;;;;;;3.23;2.50;;;5.60;96.80;;;;;;5112921;28;20230;-53
2022/04/20 00:34:44;;;;;;;3.33;2.90;;;5.60;97.00;;;;;;5113723;28;20256;-52
2022/04/20 00:37:12;;;;;;;3.20;2.80;;;5.60;97.10;;;;;;5113986;28;20219;-52
2022/04/20 00:39:41;;;;;;;4.00;2.70;;;5.50;97.20;;;;;;5113711;28;20203;-52
2022/04/20 00:42:10;;;;;;;5.43;2.87;;;5.40;97.40;;;;;;5113031;28;20202;-52
2022/04/20 00:44:39;;;;;;;4.03;2.90;;;5.40;97.40;;;;;;5111724;28;20232;-52
2022/04/20 00:47:08;;;;;;;3.40;2.70;;;5.40;97.50;;;;;;5093231;28;20266;-52
2022/04/20 00:49:37;;;;;;;2.60;2.30;;;5.40;97.70;;;;;;5092401;28;20279;-52
2022/04/20 00:52:07;;;;;;;9.00;2.80;;;5.30;97.90;;;;;;5106587;27;20303;-52
2022/04/20 00:54:35;;;;;;;5.13;2.80;;;5.30;97.90;;;;;;5111394;28;20230;-53
2022/04/20 00:57:05;;;;;;;4.73;2.70;;;5.30;98.00;;;;;;5112310;28;20207;-52
2022/04/20 00:59:35;;;;;;;4.00;2.50;;;5.30;98.10;;;;;;5112378;28;20207;-52
2022/04/20 01:02:04;;;;;;;2.77;2.57;;;5.30;98.10;;;;;;5112041;28;20729;-52
2022/04/20 01:04:33;;;;;;;3.80;2.97;;;5.30;98.20;;;;;;5111157;28;20230;-52
2022/04/20 01:07:01;;;;;;;7.20;3.03;;;5.30;98.40;;;;;;5112559;28;20690;-52
2022/04/20 01:09:29;;;;;;;3.87;2.50;;;5.30;98.50;;;;;;5113028;28;20202;-52
2022/04/20 01:11:57;;;;;;;3.07;2.77;;;5.20;98.60;;;;;;5112388;28;20589;-52
2022/04/20 01:14:27;;;;;;;3.60;2.50;;;5.20;98.90;;;;;;5112598;28;20599;-52
2022/04/20 01:16:55;;;;;;;2.50;2.30;;;5.20;99.10;;;;;;5112878;28;20282;-52
2022/04/20 01:19:23;;;;;;;2.43;2.23;;;5.10;99.10;;;;;;5101632;28;20681;-52
2022/04/20 01:21:53;;;;;;;3.97;2.93;;;5.10;99.10;;;;;;5091794;28;20746;-52
2022/04/20 01:24:21;;;;;;;2.77;2.47;;;5.10;99.30;;;;;;5100668;28;20234;-52
2022/04/20 01:26:49;;;;;;;4.17;2.70;;;5.00;99.40;;;;;;5112897;28;20215;-52
2022/04/20 01:29:20;;;;;;;3.47;2.80;;;5.00;99.30;;;;;;5113014;28;20271;-52
2022/04/20 01:31:48;;;;;;;2.83;2.57;;;5.00;99.50;;;;;;5111380;28;20263;-52
2022/04/20 01:34:16;;;;;;;3.90;2.60;;;5.00;99.60;;;;;;5112672;28;20282;-52
2022/04/20 01:36:44;;;;;;;3.07;2.77;;;5.00;99.80;;;;;;5112050;28;20235;-52
2022/04/20 01:39:15;;;;;;;3.40;2.87;;;5.00;99.80;;;;;;5112671;28;20201;-52
2022/04/20 01:41:43;;;;;;;3.20;2.63;;;4.90;99.90;;;;;;5112126;28;20210;-52
2022/04/20 01:44:11;;;;;;;5.27;2.90;;;4.90;99.90;;;;;;5112629;28;20287;-52
2022/04/20 01:46:39;;;;;;;3.80;2.70;;;4.90;99.90;;;;;;5112199;28;20263;-52
2022/04/20 01:49:07;;;;;;;2.87;2.63;;;4.90;99.90;;;;;;5112480;28;20251;-52
2022/04/20 01:51:54;;;;;;;3.33;3.03;;;4.90;99.90;;;;;;5111793;28;20206;-52
2022/04/20 01:54:23;;;;;;;3.27;2.50;;;4.90;99.90;;;;;;5110932;28;20225;-52
2022/04/20 01:56:52;;;;;;;3.13;2.80;;;4.80;99.90;;;;;;5112082;28;20213;-51
2022/04/20 01:59:20;;;;;;;3.27;2.60;;;4.80;99.90;;;;;;5112763;28;20204;-52
2022/04/20 02:04:34;;;;;;;4.23;2.80;;;4.80;99.90;;;;;;5111537;28;20229;-52
2022/04/20 02:07:02;;;;;;;3.00;2.57;;;4.80;99.90;;;;;;5111992;28;20257;-51
2022/04/20 02:09:31;;;;;;;3.67;2.80;;;4.80;99.90;;;;;;5111945;28;20250;-52
2022/04/20 02:11:59;;;;;;;4.50;2.90;;;4.80;99.90;;;;;;5111567;28;20203;-52
2022/04/20 02:14:28;;;;;;;9.93;3.10;;;4.70;99.90;;;;;;5112099;28;20237;-52
2022/04/20 02:16:56;;;;;;;3.00;2.60;;;4.70;99.90;;;;;;5111858;28;20201;-52
2022/04/20 02:19:24;;;;;;;3.43;2.63;;;4.70;99.90;;;;;;5112060;28;20209;-52
2022/04/20 02:21:52;;;;;;;3.53;2.80;;;4.70;99.90;;;;;;5111185;28;20210;-52
2022/04/20 02:24:20;;;;;;;3.33;3.03;;;4.70;99.90;;;;;;5111556;28;20226;-52
2022/04/20 02:26:50;;;;;;;3.30;2.70;;;4.60;99.90;;;;;;5111704;28;20210;-52
2022/04/20 02:29:18;;;;;;;3.80;3.10;;;4.60;99.90;;;;;;5111704;28;20215;-52
2022/04/20 02:31:46;;;;;;;5.20;2.77;;;4.60;99.90;;;;;;5111008;28;20261;-52
2022/04/20 02:34:14;;;;;;;5.80;3.40;;;4.60;99.90;;;;;;5110745;28;20230;-52
2022/04/20 02:36:43;;;;;;;2.80;2.50;;;4.60;99.90;;;;;;5111498;28;20258;-52
2022/04/20 02:39:11;;;;;;;3.93;3.10;;;4.60;99.90;;;;;;5111642;28;20739;-52
2022/04/20 02:41:41;;;;;;;3.90;2.77;;;4.60;99.90;;;;;;5111475;28;20620;-52
2022/04/20 02:44:12;;;;;;;3.97;3.03;;;4.60;99.90;;;;;;5111036;28;20218;-51
2022/04/20 02:46:40;;;;;;;3.73;3.20;;;4.50;99.90;;;;;;5110498;28;20798;-52
2022/04/20 02:49:08;;;;;;;3.20;2.87;;;4.50;99.90;;;;;;5111789;28;20673;-52
2022/04/20 02:51:36;;;;;;;2.87;2.67;;;4.50;99.90;;;;;;5111325;28;20217;-52
2022/04/20 02:54:04;;;;;;;4.07;2.90;;;4.50;99.90;;;;;;5110649;28;20785;-51
2022/04/20 02:56:32;;;;;;;3.30;3.00;;;4.40;99.90;;;;;;5111128;28;20234;-51
2022/04/20 02:59:00;;;;;;;4.67;2.90;;;4.40;99.90;;;;;;5111387;28;20204;-52
2022/04/20 03:01:30;;;;;;;3.47;3.13;;;4.40;99.90;;;;;;5111251;28;20212;-51
2022/04/20 03:03:59;;;;;;;3.60;2.83;;;4.40;99.90;;;;;;5110260;28;20835;-52
2022/04/20 03:06:28;;;;;;;3.20;2.93;;;4.40;99.90;;;;;;5113911;28;20277;-52
2022/04/20 03:08:56;;;;;;;3.10;2.80;;;4.40;99.90;;;;;;5109285;28;20209;-52
2022/04/20 03:11:24;;;;;;;4.67;2.73;;;4.40;99.90;;;;;;5095044;28;20205;-52
2022/04/20 03:13:52;;;;;;;4.50;2.90;;;4.40;99.90;;;;;;5094243;28;20754;-52
2022/04/20 03:16:21;;;;;;;3.47;2.70;;;4.30;99.90;;;;;;5108669;28;20212;-52
2022/04/20 03:18:50;;;;;;;5.20;3.03;;;4.30;99.90;;;;;;5115621;28;20211;-52
2022/04/20 03:21:18;;;;;;;4.17;3.30;;;4.30;99.90;;;;;;5114990;28;20207;-52
2022/04/20 03:23:46;;;;;;;4.40;3.07;;;4.30;99.90;;;;;;5114995;28;20210;-51
2022/04/20 03:26:15;;;;;;;3.40;3.10;;;4.30;99.90;;;;;;5114926;28;20199;-52
2022/04/20 03:28:44;;;;;;;3.47;3.00;;;4.30;99.90;;;;;;5115173;28;20208;-51
2022/04/20 03:31:12;;;;;;;6.13;3.10;;;4.30;99.90;;;;;;5114877;28;20244;-52
2022/04/20 03:33:40;;;;;;;3.40;3.00;;;4.30;99.90;;;;;;5114357;28;20265;-52
2022/04/20 03:36:11;;;;;;;5.67;3.70;;;4.20;99.90;;;;;;5114767;28;20212;-52
2022/04/20 03:38:39;;;;;;;3.77;3.10;;;4.20;99.90;;;;;;5115100;27;20212;-52
2022/04/20 03:41:07;;;;;;;3.20;2.90;;;4.10;99.90;;;;;;5114638;28;20639;-52
2022/04/20 03:43:35;;;;;;;5.63;3.13;;;4.10;99.90;;;;;;5114507;28;20224;-52
2022/04/20 03:46:05;;;;;;;5.77;3.13;;;4.10;99.90;;;;;;5114751;28;20203;-51
2022/04/20 03:48:33;;;;;;;4.00;3.23;;;4.10;99.90;;;;;;5114645;28;20578;-52
2022/04/20 03:51:01;;;;;;;6.37;2.90;;;4.10;99.90;;;;;;5114400;28;20209;-52
2022/04/20 03:53:31;;;;;;;4.97;3.13;;;4.00;99.90;;;;;;5113383;28;20294;-51
2022/04/20 03:55:59;;;;;;;4.30;3.00;;;4.00;99.90;;;;;;5114382;28;20209;-52
2022/04/20 03:58:27;;;;;;;3.93;3.50;;;4.00;99.90;;;;;;5114494;28;20200;-52
2022/04/20 04:00:55;;;;;;;4.93;2.77;;;4.00;99.90;;;;;;5114459;28;20263;-52
2022/04/20 04:03:23;;;;;;;3.20;2.83;;;3.90;99.90;;;;;;5113715;28;20248;-52
2022/04/20 04:05:52;;;;;;;4.30;3.80;;;3.90;99.90;;;;;;5113929;28;20208;-52
2022/04/20 04:08:21;;;;;;;4.47;3.33;;;3.90;99.90;;;;;;5112602;28;20263;-52
2022/04/20 04:10:50;;;;;;;5.63;3.07;;;3.80;99.90;;;;;;5093804;28;20208;-52
2022/04/20 04:13:19;;;;;;;5.80;3.50;;;3.80;99.90;;;;;;5093371;28;20222;-52
2022/04/20 04:15:47;;;;;;;5.03;3.90;;;3.90;99.90;;;;;;5103153;28;20252;-52
2022/04/20 04:18:15;;;;;;;4.13;3.70;;;3.80;99.90;;;;;;5113203;28;20208;-52
2022/04/20 04:20:43;;;;;;;6.20;3.30;;;3.80;99.90;;;;;;5113886;28;20209;-52
2022/04/20 04:23:11;;;;;;;6.97;3.60;;;3.80;99.90;;;;;;5132165;27;20224;-52
2022/04/20 04:25:39;;;;;;;4.07;3.27;;;3.80;99.90;;;;;;5114514;27;20218;-52
2022/04/20 04:28:09;;;;;;;4.53;3.17;;;3.80;99.90;;;;;;5114259;28;20558;-52
2022/04/20 04:30:37;;;;;;;6.87;3.40;;;3.80;99.90;;;;;;5113789;28;20630;-53
2022/04/20 04:33:05;;;;;;;4.33;3.40;;;3.80;99.90;;;;;;5112493;28;20902;-52
2022/04/20 04:35:34;;;;;;;3.93;3.40;;;3.80;99.90;;;;;;5113175;28;20584;-52
2022/04/20 04:38:02;;;;;;;7.70;3.53;;;3.80;99.90;;;;;;5113766;28;20215;-52
2022/04/20 04:40:31;;;;;;;3.70;3.30;;;3.80;99.90;;;;;;5113695;28;20208;-52
2022/04/20 04:42:59;;;;;;;3.57;3.27;;;3.80;99.90;;;;;;5112906;28;20224;-52
2022/04/20 04:48:39;;;;;;;5.00;3.50;;;3.80;99.90;;;;;;5073814;28;20224;-52
2022/04/20 04:51:09;;;;;;;7.03;3.33;;;3.80;99.90;;;;;;5113601;28;20253;-52
2022/04/20 04:53:37;;;;;;;4.37;3.60;;;3.80;99.90;;;;;;5111905;28;20825;-52
2022/04/20 04:56:10;;;;;;;4.53;3.20;;;4.30;99.90;;;;;;5113442;28;20195;-52
2022/04/20 04:58:38;;;;;;;3.47;3.17;;;5.10;99.90;;;;;;5113148;28;20671;-52
2022/04/20 05:01:08;;;;;;;6.03;3.47;;;5.70;99.90;;;;;;5113027;28;20257;-52
2022/04/20 05:03:36;;;;;;;5.37;3.03;;;6.20;99.90;;;;;;5112448;28;20272;-52
2022/04/20 05:06:04;;;;;;;6.93;3.47;;;6.60;99.90;;;;;;5112980;28;20205;-52
2022/04/20 05:08:32;;;;;;;3.43;2.90;;;7.00;99.90;;;;;;5112811;28;20218;-53
2022/04/20 05:11:00;;;;;;;4.70;3.00;;;7.40;99.90;;;;;;5112826;28;20745;-52
2022/04/20 05:13:28;;;;;;;5.13;3.00;;;7.80;99.90;;;;;;5112381;28;20224;-53
2022/04/20 05:15:56;;;;;;;5.60;3.17;;;8.20;99.90;;;;;;5113146;28;20231;-53
2022/04/20 05:18:26;;;;;;;3.80;3.30;;;8.40;99.90;;;;;;5112498;28;20703;-53
2022/04/20 05:20:54;;;;;;;4.83;3.03;;;8.00;99.80;;;;;;5112696;28;20209;-53
2022/04/20 05:23:22;;;;;;;5.17;3.30;;;7.70;99.90;;;;;;5111730;28;20227;-52
2022/04/20 05:25:50;;;;;;;3.57;2.93;;;7.40;99.90;;;;;;5113426;28;20304;-52
2022/04/20 05:28:19;;;;;;;5.07;3.37;;;6.90;99.90;;;;;;5112848;28;20255;-52
2022/04/20 05:30:47;;;;;;;3.40;3.10;;;6.90;99.90;;;;;;5112871;27;20669;-52
2022/04/20 05:33:15;;;;;;;4.43;3.37;;;7.60;99.90;;;;;;5111265;28;20256;-52
2022/04/20 05:35:45;;;;;;;4.47;3.27;;;7.90;99.90;;;;;;5111803;28;20235;-53
2022/04/20 05:43:44;;;;;;;4.83;3.00;;;7.50;99.90;;;;;;5111691;28;20231;-52
2022/04/20 05:46:15;;;;;;;4.03;2.90;;;7.30;99.90;;;;;;5112356;28;20619;-52
2022/04/20 05:48:43;;;;;;;5.97;3.23;;;7.40;99.90;;;;;;5112723;28;20604;-52
2022/04/20 05:51:13;;;;;;;5.07;3.53;;;7.50;99.90;;;;;;5112750;28;20207;-52
2022/04/20 05:53:41;;;;;;;6.10;3.37;;;7.60;99.90;;;;;;5112012;28;20227;-52
2022/04/20 05:56:09;;;;;;;4.27;3.27;;;7.80;99.90;;;;;;5112803;28;20569;-52
2022/04/20 05:58:37;;;;;;;6.80;3.10;;;8.10;99.90;;;;;;5112235;27;20212;-53
2022/04/20 06:01:05;;;;;;;4.47;3.80;;;8.10;99.90;;;;;;5112480;28;20205;-52
2022/04/20 06:03:34;;;;;;;4.20;3.40;;;8.10;99.90;;;;;;5111278;28;20224;-52
2022/04/20 06:06:03;;;;;;;3.40;3.10;;;8.30;99.90;;;;;;5106991;28;20252;-52
2022/04/20 06:08:33;;;;;;;4.30;3.00;;;8.50;99.90;;;;;;5098006;28;20211;-52
2022/04/20 06:11:01;;;;;;;7.50;6.10;;;8.90;99.90;;;;;;5111711;28;20438;-52
2022/04/20 06:13:29;;;;;;;8.40;6.33;;;9.00;99.90;;;;;;5111603;28;20220;-52
2022/04/20 06:15:57;;;;;;;9.10;7.30;;;8.90;99.90;;;;;;5112021;28;20288;-52
2022/04/20 06:18:26;;;;;;;24.23;21.63;;;9.10;99.90;;;;;;5111848;28;20208;-52
2022/04/20 06:20:54;;;;;;;41.40;31.73;;;9.70;99.90;;;;;;5112078;28;20215;-53
2022/04/20 06:23:22;;;;;;;40.07;31.47;;;10.40;99.90;;;;;;5111129;28;20250;-52
2022/04/20 06:25:55;;;;;;;14.20;9.43;;;11.10;99.90;;;;;;5111284;28;20400;-53
2022/04/20 06:28:25;;;;;;;10.83;8.50;;;11.50;99.50;;;;;;5111715;28;20668;-53
2022/04/20 06:30:53;;;;;;;11.43;7.20;;;12.00;99.30;;;;;;5111341;28;20215;-53
2022/04/20 06:33:23;;;;;;;10.03;5.57;;;12.40;99.20;;;;;;5110408;28;20280;-53
2022/04/20 06:35:52;;;;;;;8.20;5.80;;;12.70;97.10;;;;;;5111597;28;20231;-53
2022/04/20 06:38:20;;;;;;;5.70;3.73;;;13.10;97.20;;;;;;5110889;28;20191;-53
2022/04/20 06:40:48;;;;;;;4.07;3.00;;;13.30;96.20;;;;;;5110756;28;20203;-53
2022/04/20 06:43:18;;;;;;;3.72;3.03;;;13.60;95.50;;;;;;5110588;28;20987;-53
2022/04/20 06:45:46;;;;;;;4.63;3.13;;;14.00;95.80;;;;;;5110988;28;20248;-53
2022/04/20 06:48:14;;;;;;;4.95;3.50;;;14.20;94.80;;;;;;5111669;28;20200;-53
2022/04/20 06:50:43;;;;;;;6.30;3.00;;;14.40;95.80;;;;;;5111160;28;20214;-53
2022/04/20 06:58:44;;;;;;;3.28;2.75;;;14.90;93.80;;;;;;5111334;28;20199;-52
2022/04/20 07:01:14;;;;;;;3.53;2.55;;;15.00;93.70;;;;;;5111141;28;20622;-53
2022/04/20 07:03:44;;;;;;;3.85;2.78;;;15.20;92.50;;;;;;5107664;28;20234;-52
2022/04/20 07:06:12;;;;;;;6.53;3.28;;;15.30;94.60;;;;;;5092836;28;20203;-50
2022/04/20 07:08:40;;;;;;;3.03;2.63;;;15.20;94.40;;;;;;5110953;28;20196;-50
2022/04/20 07:11:08;;;;;;;5.05;2.90;;;15.40;89.80;;;;;;5110811;28;20210;-51
2022/04/20 07:13:37;;;;;;;4.95;3.05;;;15.80;88.20;;;;;;5109818;28;20228;-51
2022/04/20 07:16:07;;;;;;;4.50;3.38;;;16.10;85.10;;;;;;5110804;28;20227;-51
2022/04/20 07:18:35;;;;;;;5.65;3.00;;;16.30;89.50;;;;;;5110484;28;20580;-51
2022/04/20 07:21:03;;;;;;;3.05;2.80;;;16.40;89.60;;;;;;5110901;28;20207;-50
2022/04/20 07:23:32;;;;;;;3.70;3.20;;;17.00;78.40;;;;;;5110421;28;20224;-51
2022/04/20 07:26:00;;;;;;;3.40;3.10;;;16.90;75.80;;;;;;5111366;28;20264;-51
2022/04/20 07:28:28;;;;;;;3.45;2.92;;;16.50;75.30;;;;;;5111331;28;20199;-50
2022/04/20 07:30:56;;;;;;;4.43;3.00;;;16.50;74.00;;;;;;5110750;28;20204;-51
2022/04/20 07:33:26;;;;;;;4.03;3.20;;;16.80;71.70;;;;;;5110448;28;20221;-50
2022/04/20 07:35:54;;;;;;;4.10;3.03;;;16.60;72.70;;;;;;5111041;28;20228;-51
2022/04/20 07:38:24;;;;;;;4.00;3.05;;;16.60;73.50;;;;;;5110919;28;20684;-51
2022/04/20 07:40:52;;;;;;;3.47;3.15;;;16.50;73.30;;;;;;5110738;28;20264;-50
2022/04/20 07:43:21;;;;;;;4.80;3.45;;;16.90;71.20;;;;;;5110330;28;20230;-50
2022/04/20 07:45:49;;;;;;;3.95;3.03;;;16.70;71.80;;;;;;5110462;28;20206;-50
2022/04/20 07:48:17;;;;;;;4.20;2.88;;;16.80;71.60;;;;;;5110906;28;20247;-51
2022/04/20 07:50:47;;;;;;;3.30;2.95;;;16.70;72.40;;;;;;5110692;28;20208;-50
2022/04/20 07:53:15;;;;;;;3.67;3.08;;;16.70;71.00;;;;;;5111824;28;20223;-50
2022/04/20 07:55:46;;;;;;;4.13;2.92;;;16.60;70.90;;;;;;5114580;28;20235;-49
2022/04/20 07:58:15;;;;;;;3.38;3.10;;;16.70;71.50;;;;;;5114222;28;20558;-50
2022/04/20 08:00:43;;;;;;;3.80;2.92;;;16.60;71.10;;;;;;5114450;28;20215;-50
2022/04/20 08:03:13;;;;;;;3.97;3.13;;;16.10;70.30;;;;;;5113659;28;20219;-50
2022/04/20 08:05:42;;;;;;;3.38;2.83;;;15.80;71.80;;;;;;5112266;28;20316;-51
2022/04/20 08:08:12;;;;;;;4.25;2.80;;;15.60;73.90;;;;;;5097045;28;20207;-50
2022/04/20 08:10:40;;;;;;;3.85;2.80;;;15.60;73.70;;;;;;5095727;28;20631;-50
2022/04/20 08:15:55;;;;;;;4.32;3.33;;;15.50;72.80;;;;;;5113914;28;20231;-50
2022/04/20 08:18:24;;;;;;;3.45;3.15;;;15.10;71.10;;;;;;5110030;28;20733;-50
2022/04/20 08:20:52;;;;;;;3.70;2.93;;;15.10;71.70;;;;;;5113984;28;20204;-50
2022/04/20 08:23:22;;;;;;;5.33;3.77;;;14.90;72.40;;;;;;5112980;28;20227;-50
2022/04/20 08:25:50;;;;;;;3.40;3.10;;;14.70;73.00;;;;;;5114162;28;20260;-50
2022/04/20 08:28:18;;;;;;;4.40;3.17;;;14.70;73.80;;;;;;5114062;28;20207;-50
2022/04/20 08:30:46;;;;;;;4.53;2.97;;;14.70;73.50;;;;;;5114104;28;20212;-50
2022/04/20 08:33:14;;;;;;;4.37;3.40;;;14.70;73.80;;;;;;5113359;28;20231;-50
2022/04/20 08:35:42;;;;;;;4.20;3.20;;;14.70;74.00;;;;;;5113717;28;20215;-50
2022/04/20 08:38:10;;;;;;;6.17;3.43;;;14.60;73.50;;;;;;5113751;28;20253;-50
2022/04/20 08:40:40;;;;;;;3.97;3.43;;;14.60;74.20;;;;;;5113714;28;20272;-50
2022/04/20 08:43:12;;;;;;;8.53;3.90;;;14.60;74.70;;;;;;5113594;28;20227;-50
2022/04/20 08:45:41;;;;;;;4.97;3.50;;;14.60;74.50;;;;;;5113349;28;20214;-50
2022/04/20 08:48:10;;;;;;;4.77;3.33;;;14.70;73.60;;;;;;5113844;28;20203;-50
2022/04/20 08:50:39;;;;;;;4.17;3.50;;;14.60;73.40;;;;;;5113208;28;20203;-50
2022/04/20 08:53:08;;;;;;;5.73;3.60;;;14.50;74.70;;;;;;5112970;27;20274;-50
2022/04/20 08:55:36;;;;;;;4.70;3.30;;;14.40;72.90;;;;;;5112992;27;20203;-50
2022/04/20 08:58:06;;;;;;;4.00;3.33;;;14.40;73.80;;;;;;5113595;28;20553;-50
2022/04/20 09:00:34;;;;;;;4.60;3.83;;;14.40;73.10;;;;;;5113318;28;20236;-50
2022/04/20 09:03:03;;;;;;;3.93;3.47;;;14.40;74.40;;;;;;5112276;28;20339;-51
2022/04/20 09:05:34;;;;;;;7.50;3.50;;;14.50;76.70;;;;;;5113328;28;20207;-50
2022/04/20 09:08:09;;;;;;;4.57;3.50;;;14.50;75.20;;;;;;5113003;28;20195;-50
2022/04/20 09:10:38;;;;;;;5.77;3.60;;;14.60;73.80;;;;;;5092658;28;20211;-50
2022/04/20 09:13:09;;;;;;;6.63;4.03;;;14.60;73.50;;;;;;5092293;28;20224;-52
2022/04/20 09:15:38;;;;;;;5.60;3.60;;;14.40;72.90;;;;;;5092662;28;20200;-50
2022/04/20 09:18:08;;;;;;;4.83;3.63;;;14.50;74.60;;;;;;5092988;28;20224;-50
2022/04/20 09:20:39;;;;;;;4.63;3.57;;;14.50;75.00;;;;;;5092451;28;20261;-50
2022/04/20 09:23:08;;;;;;;4.00;3.20;;;14.40;73.00;;;;;;5091965;28;20756;-50
2022/04/20 09:25:48;;;;;;;5.63;3.80;;;14.50;73.50;;;;;;5111505;28;20227;-50
2022/04/20 09:28:18;;;;;;;19.07;4.20;;;14.50;73.30;;;;;;5112098;28;20188;-50
2022/04/20 09:30:51;;;;;;;3.40;3.10;;;14.50;77.30;;;;;;5092250;28;20196;-50
2022/04/20 09:33:19;;;;;;;7.03;3.67;;;14.50;74.60;;;;;;5091659;28;20239;-50
2022/04/20 09:35:48;;;;;;;5.50;3.50;;;14.50;73.90;;;;;;5091940;28;20204;-50
2022/04/20 09:38:19;;;;;;;3.90;3.13;;;14.50;73.00;;;;;;5112148;28;20219;-50
2022/04/20 09:40:48;;;;;;;5.87;3.60;;;14.70;74.10;;;;;;5112335;28;20199;-50
2022/04/20 09:43:20;;;;;;;3.90;3.27;;;14.70;73.60;;;;;;5111705;28;20227;-50
2022/04/20 09:46:02;;;;;;;4.93;3.33;;;14.80;75.00;;;;;;5112575;28;20199;-50
2022/04/20 09:51:20;;;;;;;4.83;3.40;;;14.90;73.50;;;;;;5112296;28;20660;-50
2022/04/20 09:53:50;;;;;;;5.97;3.40;;;14.90;73.40;;;;;;5111717;28;20715;-50
2022/04/20 09:56:20;;;;;;;3.93;3.20;;;14.80;73.10;;;;;;5112107;28;20199;-50
2022/04/20 09:58:58;;;;;;;4.03;3.30;;;14.80;72.90;;;;;;5112526;28;20246;-50
2022/04/20 10:01:31;;;;;;;4.70;3.37;;;14.90;72.20;;;;;;5112070;28;20290;-50
2022/04/20 10:04:01;;;;;;;5.67;3.40;;;14.90;71.40;;;;;;5111114;28;20224;-50
2022/04/20 10:06:29;;;;;;;4.97;3.17;;;14.70;70.70;;;;;;5111845;28;20203;-50
2022/04/20 10:08:58;;;;;;;5.47;3.37;;;14.70;71.80;;;;;;5112059;28;20277;-50
2022/04/20 10:11:28;;;;;;;4.20;3.10;;;14.70;72.00;;;;;;5111636;28;20249;-50
2022/04/20 10:16:48;;;;;;;4.20;3.80;;;14.60;71.00;;;;;;5111603;28;20257;-50
2022/04/20 10:19:22;;;;;;;3.60;3.13;;;14.40;71.70;;;;;;5111427;28;20207;-50
2022/04/20 10:21:52;;;;;;;5.17;3.73;;;14.50;72.30;;;;;;5111227;28;20562;-50
2022/04/20 10:24:25;;;;;;;4.50;3.60;;;14.60;72.30;;;;;;5111524;28;20227;-50
2022/04/20 10:26:54;;;;;;;4.63;3.33;;;14.60;73.80;;;;;;5111887;28;20249;-50
2022/04/20 10:29:30;;;;;;;6.20;3.50;;;14.50;75.10;;;;;;5110612;28;20225;-50
2022/04/20 10:32:04;;;;;;;3.77;3.30;;;14.50;74.40;;;;;;5111031;28;20211;-50
2022/04/20 10:34:33;;;;;;;6.30;3.80;;;14.60;74.50;;;;;;5111334;28;20251;-50
2022/04/20 10:37:03;;;;;;;4.57;3.97;;;14.70;74.60;;;;;;5109929;28;20293;-50
2022/04/20 10:39:36;;;;;;;5.97;3.57;;;14.60;74.10;;;;;;5111614;28;20199;-50
2022/04/20 10:42:27;;;;;;;4.97;3.53;;;14.70;73.50;;;;;;5110949;28;20582;-50
2022/04/20 10:45:03;;;;;;;6.07;4.37;;;14.60;73.90;;;;;;5111345;28;20215;-50
2022/04/20 10:47:35;;;;;;;4.27;3.43;;;14.80;76.20;;;;;;5111506;28;20203;-50
2022/04/20 10:50:20;;;;;;;5.67;3.90;;;14.80;73.90;;;;;;5111247;28;20738;-50
2022/04/20 10:52:52;;;;;;;4.87;3.47;;;14.70;75.50;;;;;;5110673;28;20207;-50
2022/04/20 10:55:25;;;;;;;4.67;3.60;;;14.70;77.70;;;;;;5111174;28;20641;-51
2022/04/20 10:57:56;;;;;;;6.70;3.60;;;14.70;74.80;;;;;;5111693;28;20308;-50
2022/04/20 11:00:34;;;;;;;5.57;4.00;;;14.70;74.50;;;;;;5111378;28;20588;-50
2022/04/20 11:03:04;;;;;;;4.20;3.70;;;14.80;75.70;;;;;;5110999;28;20231;-50
2022/04/20 11:05:33;;;;;;;5.30;3.67;;;14.70;75.10;;;;;;5111153;28;20211;-50
2022/04/20 11:08:03;;;;;;;4.10;3.70;;;14.70;76.60;;;;;;5127525;28;20653;-50
2022/04/20 11:10:31;;;;;;;6.83;3.63;;;14.70;75.70;;;;;;5112107;28;20617;-50
2022/04/20 11:19:20;;;;;;;5.40;3.50;;;14.90;75.00;;;;;;5110129;28;20223;-50
2022/04/20 11:22:01;;;;;;;5.00;3.47;;;15.00;75.90;;;;;;5106523;28;20210;-50
2022/04/20 11:24:30;;;;;;;4.63;3.27;;;15.00;74.80;;;;;;5110461;28;20248;-50
2022/04/20 11:26:59;;;;;;;6.87;3.30;;;15.10;75.20;;;;;;5113074;28;20211;-53
2022/04/20 11:29:29;;;;;;;4.00;3.00;;;15.10;73.80;;;;;;5114998;28;20286;-51
2022/04/20 11:32:00;;;;;;;4.97;3.30;;;14.90;73.10;;;;;;5114469;28;20223;-50
2022/04/20 11:34:31;;;;;;;5.63;3.33;;;15.00;75.40;;;;;;5114006;28;20219;-50
2022/04/20 11:37:01;;;;;;;3.60;3.10;;;15.00;74.20;;;;;;5114960;28;20245;-50
2022/04/20 11:39:30;;;;;;;5.43;3.67;;;15.00;73.60;;;;;;5114941;28;20261;-50
2022/04/20 11:41:59;;;;;;;5.03;3.53;;;15.10;74.20;;;;;;5114182;28;20257;-50
2022/04/20 11:44:28;;;;;;;6.50;3.60;;;15.10;75.00;;;;;;5114738;28;20231;-50
2022/04/20 11:47:02;;;;;;;6.27;3.30;;;15.10;75.20;;;;;;5094026;28;20207;-50
2022/04/20 11:49:32;;;;;;;3.90;3.50;;;15.20;74.80;;;;;;5094687;28;20253;-50
2022/04/20 11:52:03;;;;;;;3.63;2.77;;;15.10;73.40;;;;;;5093906;28;20204;-50
2022/04/20 11:54:32;;;;;;;3.63;2.83;;;15.00;72.80;;;;;;5096680;28;20227;-51
2022/04/20 11:57:01;;;;;;;5.13;2.83;;;15.00;71.20;;;;;;5114809;28;20204;-51
2022/04/20 11:59:30;;;;;;;3.60;2.90;;;15.00;72.50;;;;;;5114003;28;20665;-50
2022/04/20 12:01:59;;;;;;;3.77;3.23;;;15.10;71.80;;;;;;5109528;28;20826;-50
2022/04/20 12:04:29;;;;;;;4.77;2.77;;;15.00;72.00;;;;;;5112173;28;20235;-50
2022/04/20 12:06:59;;;;;;;4.60;3.13;;;15.10;73.20;;;;;;5105804;28;20724;-51
2022/04/20 12:09:29;;;;;;;5.73;3.10;;;15.10;71.20;;;;;;5108248;28;20249;-51
2022/04/20 12:11:59;;;;;;;3.63;3.30;;;15.20;72.10;;;;;;5099889;28;20268;-50
2022/04/20 12:14:30;;;;;;;4.20;3.43;;;15.20;75.80;;;;;;5113596;28;20223;-50
2022/04/20 12:17:05;;;;;;;3.33;3.03;;;15.20;74.50;;;;;;5113723;28;20201;-51
2022/04/20 12:19:34;;;;;;;6.33;2.53;;;15.20;74.90;;;;;;5113801;28;20596;-51
2022/04/20 12:22:07;;;;;;;11.10;3.43;;;15.30;75.30;;;;;;5113256;28;20253;-51
2022/04/20 12:24:35;;;;;;;3.90;3.10;;;15.20;74.10;;;;;;5113980;28;20637;-51
2022/04/20 12:27:04;;;;;;;4.53;3.10;;;15.20;74.60;;;;;;5113467;28;20257;-50
2022/04/20 12:29:34;;;;;;;3.83;3.10;;;15.20;74.70;;;;;;5113542;28;20203;-51
2022/04/20 12:32:05;;;;;;;4.30;3.17;;;15.30;74.90;;;;;;5112574;28;20763;-51
2022/04/20 12:34:33;;;;;;;4.30;3.40;;;15.20;75.20;;;;;;5113893;28;20224;-50
2022/04/20 12:37:06;;;;;;;3.60;3.23;;;15.20;74.70;;;;;;5113337;28;20264;-50
2022/04/20 12:39:35;;;;;;;3.90;3.07;;;15.20;74.70;;;;;;5112822;28;20208;-51
2022/04/20 12:42:07;;;;;;;3.70;3.30;;;15.40;76.90;;;;;;5112707;28;20222;-51
2022/04/20 12:44:38;;;;;;;7.73;3.40;;;15.40;77.70;;;;;;5112566;28;20227;-51
2022/04/20 12:47:46;;;;;;;5.50;3.13;;;15.50;77.60;;;;;;5113342;28;20214;-50
2022/04/20 12:50:25;;;;;;;4.30;3.30;;;15.50;77.60;;;;;;5109808;27;20203;-50
2022/04/20 12:52:59;;;;;;;4.57;3.50;;;15.50;77.10;;;;;;5112678;27;20199;-51
2022/04/20 13:02:01;;;;;;;4.37;3.30;;;15.50;76.80;;;;;;5112928;28;20210;-50
2022/04/20 13:04:17;;;;;;;3.53;3.10;;;15.40;78.80;;;;;;5112392;28;20233;-50
2022/04/20 13:06:47;;;;;;;3.83;3.17;;;15.50;77.60;;;;;;5112885;28;20223;-51
2022/04/20 13:09:15;;;;;;;3.97;3.28;;;15.50;78.40;;;;;;5112819;28;20203;-50
2022/04/20 13:11:43;;;;;;;3.83;3.10;;;15.50;78.40;;;;;;5111991;28;20269;-50
2022/04/20 13:14:11;;;;;;;4.50;2.97;;;15.50;78.80;;;;;;5112650;28;20280;-51
2022/04/20 13:16:39;;;;;;;4.28;3.05;;;15.70;79.50;;;;;;5113429;28;20207;-50
2022/04/20 13:19:08;;;;;;;5.53;2.90;;;15.60;78.10;;;;;;5112722;28;20219;-50
2022/04/20 13:21:36;;;;;;;5.10;2.93;;;15.70;78.60;;;;;;5113169;28;20421;-50
2022/04/20 13:24:07;;;;;;;6.43;3.30;;;15.60;78.00;;;;;;5112198;28;20223;-50
2022/04/20 13:29:22;;;;;;;4.87;3.47;;;15.70;77.50;;;;;;5113163;28;20203;-50
2022/04/20 13:31:50;;;;;;;3.17;2.77;;;15.70;77.90;;;;;;5111712;28;20303;-50
2022/04/20 13:34:18;;;;;;;7.65;2.92;;;15.80;78.60;;;;;;5112559;28;20220;-50
2022/04/20 13:36:47;;;;;;;3.40;2.65;;;15.80;80.40;;;;;;5112387;28;20260;-50
2022/04/20 13:39:16;;;;;;;4.75;3.30;;;16.00;78.40;;;;;;5112728;28;20231;-50
2022/04/20 13:41:44;;;;;;;3.47;2.97;;;15.90;80.00;;;;;;5112226;28;20573;-51